MSC Poh Lin — H8FC — position and weather

sailwx.info

Track history (hours):
 
Tides and Currents Weather Stations Pressure Air Temp Water Temp Dewpoint Dewpoint Depression Visibility Wind Speed Wind Dir Waves Ship Positions

MSC Poh Lin

Last reported at 2017-Apr-21 03:03 UTC. Time now 2017-Apr-25 18:26 UTC.
Position S 38°05' E 149°36'.

Length 294 m; draft 12.5 m.

Type: Ship (hazmat cat A). MMSI: 357405000.

Date/timePositionNaut miles runAvg speedWind from/ knotsBaromVisibWave heightAir tempDewpointWater temp
2017-Apr-21 03:03S 38°05' E 149°36'116.3
2017-Apr-21 03:00S 38°05' E 149°35'916.6
2017-Apr-21 02:27S 38°10' E 149°26'1816.5
2017-Apr-21 01:21S 38°20' E 149°07'616.4
2017-Apr-21 00:59S 38°24' E 149°00'916.4
2017-Apr-21 00:27S 38°29' E 148°51'816.7
2017-Apr-21 00:00S 38°33' E 148°43'816.6
2017-Apr-20 23:30S 38°38' E 148°34'816.3
2017-Apr-20 23:01S 38°42' E 148°26'917.0
2017-Apr-20 22:30S 38°46' E 148°16'917.2
2017-Apr-20 22:00S 38°49' E 148°06'817.1
2017-Apr-20 21:31S 38°52' E 147°56'916.9
2017-Apr-20 21:00S 38°55' E 147°45'916.7
2017-Apr-20 20:29S 38°58' E 147°35'6616.3
2017-Apr-20 16:27S 39°17' E 146°14'1116.7
2017-Apr-20 15:47S 39°18' E 145°59'2017.0
2017-Apr-20 14:37S 39°19' E 145°34'1116.9
2017-Apr-20 13:58S 39°19' E 145°20'1316.8
2017-Apr-20 13:10S 39°20' E 145°02'816.7
2017-Apr-20 12:40S 39°20' E 144°51'516.2
2017-Apr-20 12:23S 39°20' E 144°46'  
Track history (hours):
 
Tides and Currents Weather Stations Pressure Air Temp Water Temp Dewpoint Dewpoint Depression Visibility Wind Speed Wind Dir Waves Ship Positions

MSC Poh Lin

Last reported at 2017-Apr-21 03:03 UTC. Time now 2017-Apr-25 18:26 UTC.
Position S 38°05' E 149°36'.

Length 294 m; draft 12.5 m.

Type: Ship (hazmat cat A). MMSI: 357405000.

Date/timePositionNaut miles runAvg speedWind from/ knotsBaromVisibWave heightAir tempDewpointWater temp
2017-Apr-21 03:03S 38°05' E 149°36'116.3
2017-Apr-21 03:00S 38°05' E 149°35'916.6
2017-Apr-21 02:27S 38°10' E 149°26'1816.5
2017-Apr-21 01:21S 38°20' E 149°07'616.4
2017-Apr-21 00:59S 38°24' E 149°00'916.4
2017-Apr-21 00:27S 38°29' E 148°51'816.7
2017-Apr-21 00:00S 38°33' E 148°43'816.6
2017-Apr-20 23:30S 38°38' E 148°34'816.3
2017-Apr-20 23:01S 38°42' E 148°26'917.0
2017-Apr-20 22:30S 38°46' E 148°16'917.2
2017-Apr-20 22:00S 38°49' E 148°06'817.1
2017-Apr-20 21:31S 38°52' E 147°56'916.9
2017-Apr-20 21:00S 38°55' E 147°45'916.7
2017-Apr-20 20:29S 38°58' E 147°35'6616.3
2017-Apr-20 16:27S 39°17' E 146°14'1116.7
2017-Apr-20 15:47S 39°18' E 145°59'2017.0
2017-Apr-20 14:37S 39°19' E 145°34'1116.9
2017-Apr-20 13:58S 39°19' E 145°20'1316.8
2017-Apr-20 13:10S 39°20' E 145°02'816.7
2017-Apr-20 12:40S 39°20' E 144°51'516.2
2017-Apr-20 12:23S 39°20' E 144°46'  

Dump ship's entire track history